Bellaire, Michigan
Current Conditions -  °F | °C
As of 12:55 AM on Thursday 18 Dec 2014 (Local Time) from KACB Reporting Station
Overcast Overcast  
Wind Chill: 23°   Ceiling: 1100
Heat Index: 28°   Visibility: 10mi
Dew Point: 25°   Wind: 5mph
Humidity: 86%   Direction: 360°N
Pressure: 30.14"   Gusts: NA
Location:  44.98°N, 85.21°W
Report Text: KACB 180555Z AUTO 36004KT 10SM OVC011 M02/M04 A3014 RMK AO2 T10201040 11018 21020 400201020
Loading
Personal Weather Stations






























Interactive Weather Map New forecast layout! Learn more

10-Day Weather Forecast

Advertisements
Track Severe Weather on mobile